sensor_id;sensor_type;location;lat;lon;timestamp;temperature;humidity
41904;DHT22;27586;51.124;4.182;2022-08-18T00:01:44;18.50;99.90
41904;DHT22;27586;51.124;4.182;2022-08-18T00:04:11;18.50;99.90
41904;DHT22;27586;51.124;4.182;2022-08-18T00:06:37;18.50;99.90
41904;DHT22;27586;51.124;4.182;2022-08-18T00:09:06;18.50;99.90
41904;DHT22;27586;51.124;4.182;2022-08-18T00:11:38;18.50;99.90
41904;DHT22;27586;51.124;4.182;2022-08-18T00:14:04;18.50;99.90
41904;DHT22;27586;51.124;4.182;2022-08-18T00:16:30;18.50;99.90
41904;DHT22;27586;51.124;4.182;2022-08-18T00:18:56;18.40;99.90
41904;DHT22;27586;51.124;4.182;2022-08-18T00:21:22;18.40;99.90
41904;DHT22;27586;51.124;4.182;2022-08-18T00:23:48;18.40;99.90
41904;DHT22;27586;51.124;4.182;2022-08-18T00:26:13;18.40;99.90
41904;DHT22;27586;51.124;4.182;2022-08-18T00:28:39;18.30;99.90
41904;DHT22;27586;51.124;4.182;2022-08-18T00:31:05;18.30;99.90
41904;DHT22;27586;51.124;4.182;2022-08-18T00:33:31;18.20;99.90
41904;DHT22;27586;51.124;4.182;2022-08-18T00:35:57;18.10;99.90
41904;DHT22;27586;51.124;4.182;2022-08-18T00:38:22;18.10;99.90
41904;DHT22;27586;51.124;4.182;2022-08-18T00:40:49;18.10;99.90
41904;DHT22;27586;51.124;4.182;2022-08-18T00:45:49;18.10;99.90
41904;DHT22;27586;51.124;4.182;2022-08-18T00:48:15;18.10;99.90
41904;DHT22;27586;51.124;4.182;2022-08-18T00:50:57;18.10;99.90
41904;DHT22;27586;51.124;4.182;2022-08-18T00:53:30;18.10;99.90
41904;DHT22;27586;51.124;4.182;2022-08-18T00:56:05;18.10;99.90
41904;DHT22;27586;51.124;4.182;2022-08-18T00:58:46;18.10;99.90
41904;DHT22;27586;51.124;4.182;2022-08-18T01:01:15;18.10;99.90
41904;DHT22;27586;51.124;4.182;2022-08-18T01:03:42;18.00;99.90
41904;DHT22;27586;51.124;4.182;2022-08-18T01:06:16;18.00;99.90
41904;DHT22;27586;51.124;4.182;2022-08-18T01:08:45;18.10;99.90
41904;DHT22;27586;51.124;4.182;2022-08-18T01:11:11;18.20;99.90
41904;DHT22;27586;51.124;4.182;2022-08-18T01:13:39;18.30;99.90
41904;DHT22;27586;51.124;4.182;2022-08-18T01:16:06;18.30;99.90
41904;DHT22;27586;51.124;4.182;2022-08-18T01:18:51;18.30;99.90
41904;DHT22;27586;51.124;4.182;2022-08-18T01:21:40;18.40;99.90
41904;DHT22;27586;51.124;4.182;2022-08-18T01:24:19;18.40;99.90
41904;DHT22;27586;51.124;4.182;2022-08-18T01:26:46;18.30;99.90
41904;DHT22;27586;51.124;4.182;2022-08-18T01:29:17;18.30;99.90
41904;DHT22;27586;51.124;4.182;2022-08-18T01:31:50;18.40;99.90
41904;DHT22;27586;51.124;4.182;2022-08-18T01:34:20;18.40;99.90
41904;DHT22;27586;51.124;4.182;2022-08-18T01:36:49;18.30;99.90
41904;DHT22;27586;51.124;4.182;2022-08-18T01:39:17;18.20;99.90
41904;DHT22;27586;51.124;4.182;2022-08-18T01:41:43;18.10;99.90
41904;DHT22;27586;51.124;4.182;2022-08-18T01:44:09;18.10;99.90
41904;DHT22;27586;51.124;4.182;2022-08-18T01:46:38;18.00;99.90
41904;DHT22;27586;51.124;4.182;2022-08-18T01:49:05;18.00;99.90
41904;DHT22;27586;51.124;4.182;2022-08-18T01:51:32;18.00;99.90
41904;DHT22;27586;51.124;4.182;2022-08-18T01:53:59;17.90;99.90
41904;DHT22;27586;51.124;4.182;2022-08-18T01:56:26;17.90;99.90
41904;DHT22;27586;51.124;4.182;2022-08-18T01:58:52;17.90;99.90
41904;DHT22;27586;51.124;4.182;2022-08-18T02:01:18;17.90;99.90
41904;DHT22;27586;51.124;4.182;2022-08-18T02:03:48;17.90;99.90
41904;DHT22;27586;51.124;4.182;2022-08-18T02:06:16;17.90;99.90
41904;DHT22;27586;51.124;4.182;2022-08-18T02:08:43;17.90;99.90
41904;DHT22;27586;51.124;4.182;2022-08-18T02:11:09;17.90;99.90
41904;DHT22;27586;51.124;4.182;2022-08-18T02:13:36;17.90;99.90
41904;DHT22;27586;51.124;4.182;2022-08-18T02:16:02;17.90;99.90
41904;DHT22;27586;51.124;4.182;2022-08-18T02:18:31;17.80;99.90
41904;DHT22;27586;51.124;4.182;2022-08-18T02:21:04;17.80;99.90
41904;DHT22;27586;51.124;4.182;2022-08-18T02:23:30;17.80;99.90
41904;DHT22;27586;51.124;4.182;2022-08-18T02:25:56;17.80;99.90
41904;DHT22;27586;51.124;4.182;2022-08-18T02:28:22;17.70;99.90
41904;DHT22;27586;51.124;4.182;2022-08-18T02:30:47;17.80;99.90
41904;DHT22;27586;51.124;4.182;2022-08-18T02:33:13;17.80;99.90
41904;DHT22;27586;51.124;4.182;2022-08-18T02:35:39;17.70;99.90
41904;DHT22;27586;51.124;4.182;2022-08-18T02:38:08;17.70;99.90
41904;DHT22;27586;51.124;4.182;2022-08-18T02:40:34;17.60;99.90
41904;DHT22;27586;51.124;4.182;2022-08-18T02:43:07;17.50;99.90
41904;DHT22;27586;51.124;4.182;2022-08-18T02:45:35;17.50;99.90
41904;DHT22;27586;51.124;4.182;2022-08-18T02:48:01;17.50;99.90
41904;DHT22;27586;51.124;4.182;2022-08-18T02:50:26;17.50;99.90
41904;DHT22;27586;51.124;4.182;2022-08-18T02:52:52;17.50;99.90
41904;DHT22;27586;51.124;4.182;2022-08-18T02:55:19;17.50;99.90
41904;DHT22;27586;51.124;4.182;2022-08-18T02:57:46;17.50;99.90
41904;DHT22;27586;51.124;4.182;2022-08-18T03:00:14;17.50;99.90
41904;DHT22;27586;51.124;4.182;2022-08-18T03:02:51;17.40;99.90
41904;DHT22;27586;51.124;4.182;2022-08-18T03:05:18;17.50;99.90
41904;DHT22;27586;51.124;4.182;2022-08-18T03:07:44;17.50;99.90
41904;DHT22;27586;51.124;4.182;2022-08-18T03:10:11;17.50;99.90
41904;DHT22;27586;51.124;4.182;2022-08-18T03:12:41;17.40;99.90
41904;DHT22;27586;51.124;4.182;2022-08-18T03:15:07;17.40;99.90
41904;DHT22;27586;51.124;4.182;2022-08-18T03:17:35;17.30;99.90
41904;DHT22;27586;51.124;4.182;2022-08-18T03:20:02;17.30;99.90
41904;DHT22;27586;51.124;4.182;2022-08-18T03:22:28;17.30;99.90
41904;DHT22;27586;51.124;4.182;2022-08-18T03:24:54;17.20;99.90
41904;DHT22;27586;51.124;4.182;2022-08-18T03:27:20;17.10;99.90
41904;DHT22;27586;51.124;4.182;2022-08-18T03:29:45;17.00;99.90
41904;DHT22;27586;51.124;4.182;2022-08-18T03:32:11;16.90;99.90
41904;DHT22;27586;51.124;4.182;2022-08-18T03:34:37;16.90;99.90
41904;DHT22;27586;51.124;4.182;2022-08-18T03:37:03;16.90;99.90
41904;DHT22;27586;51.124;4.182;2022-08-18T03:39:29;16.90;99.90
41904;DHT22;27586;51.124;4.182;2022-08-18T03:41:56;16.80;99.90
41904;DHT22;27586;51.124;4.182;2022-08-18T03:44:22;16.80;99.90
41904;DHT22;27586;51.124;4.182;2022-08-18T03:46:48;16.80;99.90
41904;DHT22;27586;51.124;4.182;2022-08-18T03:49:15;16.80;99.90
41904;DHT22;27586;51.124;4.182;2022-08-18T03:51:43;16.80;99.90
41904;DHT22;27586;51.124;4.182;2022-08-18T03:54:11;16.90;99.90
41904;DHT22;27586;51.124;4.182;2022-08-18T03:56:39;16.90;99.90
41904;DHT22;27586;51.124;4.182;2022-08-18T03:59:17;16.90;99.90
41904;DHT22;27586;51.124;4.182;2022-08-18T04:01:44;16.90;99.90
41904;DHT22;27586;51.124;4.182;2022-08-18T04:04:18;16.80;99.90
41904;DHT22;27586;51.124;4.182;2022-08-18T04:06:47;16.70;99.90
41904;DHT22;27586;51.124;4.182;2022-08-18T04:09:15;16.70;99.90
41904;DHT22;27586;51.124;4.182;2022-08-18T04:11:43;16.80;99.90
41904;DHT22;27586;51.124;4.182;2022-08-18T04:14:13;16.80;99.90
41904;DHT22;27586;51.124;4.182;2022-08-18T04:16:40;16.80;99.90
41904;DHT22;27586;51.124;4.182;2022-08-18T04:19:07;16.90;99.90
41904;DHT22;27586;51.124;4.182;2022-08-18T04:21:36;16.70;99.90
41904;DHT22;27586;51.124;4.182;2022-08-18T04:24:03;16.70;99.90
41904;DHT22;27586;51.124;4.182;2022-08-18T04:26:38;16.60;99.90
41904;DHT22;27586;51.124;4.182;2022-08-18T04:29:05;16.60;99.90
41904;DHT22;27586;51.124;4.182;2022-08-18T04:31:31;16.70;99.90
41904;DHT22;27586;51.124;4.182;2022-08-18T04:33:58;16.70;99.90
41904;DHT22;27586;51.124;4.182;2022-08-18T04:36:25;16.80;99.90
41904;DHT22;27586;51.124;4.182;2022-08-18T04:38:51;16.80;99.90
41904;DHT22;27586;51.124;4.182;2022-08-18T04:41:18;16.80;99.90
41904;DHT22;27586;51.124;4.182;2022-08-18T04:43:44;16.80;99.90
41904;DHT22;27586;51.124;4.182;2022-08-18T04:46:09;16.70;99.90
41904;DHT22;27586;51.124;4.182;2022-08-18T04:48:38;16.80;99.90
41904;DHT22;27586;51.124;4.182;2022-08-18T04:51:11;16.70;99.90
41904;DHT22;27586;51.124;4.182;2022-08-18T04:53:38;16.70;99.90
41904;DHT22;27586;51.124;4.182;2022-08-18T04:56:39;16.80;99.90
41904;DHT22;27586;51.124;4.182;2022-08-18T04:59:08;16.80;99.90
41904;DHT22;27586;51.124;4.182;2022-08-18T05:01:40;16.80;99.90
41904;DHT22;27586;51.124;4.182;2022-08-18T05:04:07;16.80;99.90
41904;DHT22;27586;51.124;4.182;2022-08-18T05:06:34;16.80;99.90
41904;DHT22;27586;51.124;4.182;2022-08-18T05:09:04;16.90;99.90
41904;DHT22;27586;51.124;4.182;2022-08-18T05:11:31;16.90;99.90
41904;DHT22;27586;51.124;4.182;2022-08-18T05:14:05;16.90;99.90
41904;DHT22;27586;51.124;4.182;2022-08-18T05:16:32;16.90;99.90
41904;DHT22;27586;51.124;4.182;2022-08-18T05:19:04;17.00;99.90
41904;DHT22;27586;51.124;4.182;2022-08-18T05:21:30;17.00;99.90
41904;DHT22;27586;51.124;4.182;2022-08-18T05:23:56;17.10;99.90
41904;DHT22;27586;51.124;4.182;2022-08-18T05:26:23;17.10;99.90
41904;DHT22;27586;51.124;4.182;2022-08-18T05:28:48;17.10;99.90
41904;DHT22;27586;51.124;4.182;2022-08-18T05:31:16;17.20;99.90
41904;DHT22;27586;51.124;4.182;2022-08-18T05:33:44;17.20;99.90
41904;DHT22;27586;51.124;4.182;2022-08-18T05:39:44;17.40;99.90
41904;DHT22;27586;51.124;4.182;2022-08-18T05:42:00;17.40;99.90
41904;DHT22;27586;51.124;4.182;2022-08-18T05:44:29;17.40;99.90
41904;DHT22;27586;51.124;4.182;2022-08-18T05:46:59;17.30;99.90
41904;DHT22;27586;51.124;4.182;2022-08-18T05:49:27;17.30;99.90
41904;DHT22;27586;51.124;4.182;2022-08-18T05:52:05;17.30;99.90
41904;DHT22;27586;51.124;4.182;2022-08-18T05:54:44;17.30;99.90
41904;DHT22;27586;51.124;4.182;2022-08-18T05:57:36;17.40;99.90
41904;DHT22;27586;51.124;4.182;2022-08-18T06:00:05;17.50;99.90
41904;DHT22;27586;51.124;4.182;2022-08-18T06:02:46;17.60;99.90
41904;DHT22;27586;51.124;4.182;2022-08-18T06:05:22;17.70;99.90
41904;DHT22;27586;51.124;4.182;2022-08-18T06:08:02;17.70;99.90
41904;DHT22;27586;51.124;4.182;2022-08-18T06:10:30;17.80;99.90
41904;DHT22;27586;51.124;4.182;2022-08-18T06:13:00;18.00;99.90
41904;DHT22;27586;51.124;4.182;2022-08-18T06:15:56;18.00;99.90
41904;DHT22;27586;51.124;4.182;2022-08-18T06:18:58;18.10;99.90
41904;DHT22;27586;51.124;4.182;2022-08-18T06:27:08;18.10;99.90
41904;DHT22;27586;51.124;4.182;2022-08-18T06:29:43;18.10;99.90
41904;DHT22;27586;51.124;4.182;2022-08-18T06:35:18;18.30;99.90
41904;DHT22;27586;51.124;4.182;2022-08-18T06:37:57;18.40;99.90
41904;DHT22;27586;51.124;4.182;2022-08-18T06:40:46;18.50;99.90
41904;DHT22;27586;51.124;4.182;2022-08-18T06:43:14;18.50;99.90
41904;DHT22;27586;51.124;4.182;2022-08-18T06:45:44;18.60;99.90
41904;DHT22;27586;51.124;4.182;2022-08-18T06:50:55;18.60;99.90
41904;DHT22;27586;51.124;4.182;2022-08-18T06:53:22;18.70;99.90
41904;DHT22;27586;51.124;4.182;2022-08-18T06:56:43;18.80;99.90
41904;DHT22;27586;51.124;4.182;2022-08-18T07:01:47;18.80;99.90
41904;DHT22;27586;51.124;4.182;2022-08-18T07:06:55;18.90;99.90
41904;DHT22;27586;51.124;4.182;2022-08-18T07:09:33;19.00;99.90
41904;DHT22;27586;51.124;4.182;2022-08-18T07:12:06;19.10;99.90
41904;DHT22;27586;51.124;4.182;2022-08-18T07:14:52;19.10;99.90
41904;DHT22;27586;51.124;4.182;2022-08-18T07:17:22;19.20;99.90
41904;DHT22;27586;51.124;4.182;2022-08-18T07:20:00;19.30;99.90
41904;DHT22;27586;51.124;4.182;2022-08-18T07:22:26;19.40;99.90
41904;DHT22;27586;51.124;4.182;2022-08-18T07:24:55;19.50;99.90
41904;DHT22;27586;51.124;4.182;2022-08-18T07:27:44;19.40;99.90
41904;DHT22;27586;51.124;4.182;2022-08-18T07:30:13;19.50;99.90
41904;DHT22;27586;51.124;4.182;2022-08-18T07:41:22;19.80;99.90
41904;DHT22;27586;51.124;4.182;2022-08-18T07:43:56;19.60;99.90
41904;DHT22;27586;51.124;4.182;2022-08-18T07:49:22;19.90;99.90
41904;DHT22;27586;51.124;4.182;2022-08-18T07:52:35;19.90;99.90
41904;DHT22;27586;51.124;4.182;2022-08-18T07:55:09;20.00;99.90
41904;DHT22;27586;51.124;4.182;2022-08-18T08:00:30;20.20;99.90
41904;DHT22;27586;51.124;4.182;2022-08-18T08:14:20;20.60;99.90
41904;DHT22;27586;51.124;4.182;2022-08-18T08:20:05;20.60;99.90
41904;DHT22;27586;51.124;4.182;2022-08-18T08:25:21;20.90;99.90
41904;DHT22;27586;51.124;4.182;2022-08-18T08:28:03;21.00;99.90
41904;DHT22;27586;51.124;4.182;2022-08-18T08:30:45;21.20;99.90
41904;DHT22;27586;51.124;4.182;2022-08-18T08:36:07;21.40;99.90
41904;DHT22;27586;51.124;4.182;2022-08-18T08:38:46;21.50;99.90
41904;DHT22;27586;51.124;4.182;2022-08-18T08:46:44;21.80;99.90
41904;DHT22;27586;51.124;4.182;2022-08-18T08:49:26;22.10;99.90
41904;DHT22;27586;51.124;4.182;2022-08-18T08:52:08;22.30;99.90
41904;DHT22;27586;51.124;4.182;2022-08-18T08:54:47;22.50;99.90
41904;DHT22;27586;51.124;4.182;2022-08-18T08:57:15;22.80;99.90
41904;DHT22;27586;51.124;4.182;2022-08-18T08:59:44;22.90;99.90
41904;DHT22;27586;51.124;4.182;2022-08-18T09:10:27;22.90;99.90
41904;DHT22;27586;51.124;4.182;2022-08-18T09:16:23;22.60;99.90
41904;DHT22;27586;51.124;4.182;2022-08-18T09:19:09;22.50;99.90
41904;DHT22;27586;51.124;4.182;2022-08-18T09:24:21;22.10;99.90
41904;DHT22;27586;51.124;4.182;2022-08-18T09:37:27;23.20;99.90
41904;DHT22;27586;51.124;4.182;2022-08-18T09:40:05;22.90;99.90
41904;DHT22;27586;51.124;4.182;2022-08-18T09:43:13;23.20;99.90
41904;DHT22;27586;51.124;4.182;2022-08-18T09:54:07;23.90;99.90
41904;DHT22;27586;51.124;4.182;2022-08-18T10:01:59;23.30;99.90
41904;DHT22;27586;51.124;4.182;2022-08-18T10:04:33;23.10;99.90
41904;DHT22;27586;51.124;4.182;2022-08-18T10:09:58;22.90;99.90
41904;DHT22;27586;51.124;4.182;2022-08-18T10:18:54;23.40;99.90
41904;DHT22;27586;51.124;4.182;2022-08-18T10:34:42;24.90;99.90
41904;DHT22;27586;51.124;4.182;2022-08-18T10:42:50;24.50;99.90
41904;DHT22;27586;51.124;4.182;2022-08-18T10:45:37;24.30;99.90
41904;DHT22;27586;51.124;4.182;2022-08-18T10:50:37;24.00;99.90
41904;DHT22;27586;51.124;4.182;2022-08-18T10:56:25;24.20;99.90
41904;DHT22;27586;51.124;4.182;2022-08-18T11:02:00;24.20;99.90
41904;DHT22;27586;51.124;4.182;2022-08-18T11:04:41;24.10;99.90
41904;DHT22;27586;51.124;4.182;2022-08-18T11:07:11;24.20;99.90
41904;DHT22;27586;51.124;4.182;2022-08-18T11:09:41;24.30;99.90
41904;DHT22;27586;51.124;4.182;2022-08-18T11:12:09;24.60;99.90
41904;DHT22;27586;51.124;4.182;2022-08-18T11:15:07;24.80;99.90
41904;DHT22;27586;51.124;4.182;2022-08-18T11:17:41;24.50;99.90
41904;DHT22;27586;51.124;4.182;2022-08-18T11:20:12;24.50;99.90
41904;DHT22;27586;51.124;4.182;2022-08-18T11:22:49;24.60;99.90
41904;DHT22;27586;51.124;4.182;2022-08-18T11:25:24;24.70;99.90
41904;DHT22;27586;51.124;4.182;2022-08-18T11:27:51;24.70;99.90
41904;DHT22;27586;51.124;4.182;2022-08-18T11:30:17;24.20;99.90
41904;DHT22;27586;51.124;4.182;2022-08-18T11:32:44;24.00;99.90
41904;DHT22;27586;51.124;4.182;2022-08-18T11:35:13;23.90;99.90
41904;DHT22;27586;51.124;4.182;2022-08-18T11:40:31;23.40;99.90
41904;DHT22;27586;51.124;4.182;2022-08-18T11:56:20;24.70;99.90
41904;DHT22;27586;51.124;4.182;2022-08-18T12:01:50;25.00;99.90
41904;DHT22;27586;51.124;4.182;2022-08-18T12:06:56;25.20;99.90
41904;DHT22;27586;51.124;4.182;2022-08-18T12:12:21;25.70;99.90
41904;DHT22;27586;51.124;4.182;2022-08-18T12:17:37;26.20;99.90
41904;DHT22;27586;51.124;4.182;2022-08-18T12:20:04;26.40;99.90
41904;DHT22;27586;51.124;4.182;2022-08-18T12:22:35;26.60;99.90
41904;DHT22;27586;51.124;4.182;2022-08-18T12:25:02;26.80;99.90
41904;DHT22;27586;51.124;4.182;2022-08-18T12:27:29;26.50;99.90
41904;DHT22;27586;51.124;4.182;2022-08-18T12:29:58;26.30;99.90
41904;DHT22;27586;51.124;4.182;2022-08-18T12:32:28;26.10;99.90
41904;DHT22;27586;51.124;4.182;2022-08-18T12:34:54;25.90;99.90
41904;DHT22;27586;51.124;4.182;2022-08-18T12:37:23;25.70;99.90
41904;DHT22;27586;51.124;4.182;2022-08-18T12:39:51;25.90;99.90
41904;DHT22;27586;51.124;4.182;2022-08-18T12:42:17;26.10;99.90
41904;DHT22;27586;51.124;4.182;2022-08-18T12:44:43;26.50;99.90
41904;DHT22;27586;51.124;4.182;2022-08-18T12:47:15;26.50;99.90
41904;DHT22;27586;51.124;4.182;2022-08-18T12:49:42;26.50;99.90
41904;DHT22;27586;51.124;4.182;2022-08-18T12:52:08;26.60;99.90
41904;DHT22;27586;51.124;4.182;2022-08-18T12:54:34;26.70;99.90
41904;DHT22;27586;51.124;4.182;2022-08-18T12:57:02;26.50;99.90
41904;DHT22;27586;51.124;4.182;2022-08-18T12:59:29;26.70;99.90
41904;DHT22;27586;51.124;4.182;2022-08-18T13:01:55;26.80;99.90
41904;DHT22;27586;51.124;4.182;2022-08-18T13:04:21;26.80;99.90
41904;DHT22;27586;51.124;4.182;2022-08-18T13:06:51;26.70;99.90
41904;DHT22;27586;51.124;4.182;2022-08-18T13:09:18;26.20;99.90
41904;DHT22;27586;51.124;4.182;2022-08-18T13:11:45;25.80;99.90
41904;DHT22;27586;51.124;4.182;2022-08-18T13:14:11;25.50;99.90
41904;DHT22;27586;51.124;4.182;2022-08-18T13:16:40;25.30;99.90
41904;DHT22;27586;51.124;4.182;2022-08-18T13:19:07;25.20;99.90
41904;DHT22;27586;51.124;4.182;2022-08-18T13:21:33;25.20;99.90
41904;DHT22;27586;51.124;4.182;2022-08-18T13:23:59;25.00;99.90
41904;DHT22;27586;51.124;4.182;2022-08-18T13:26:36;24.90;99.90
41904;DHT22;27586;51.124;4.182;2022-08-18T13:29:03;24.80;99.90
41904;DHT22;27586;51.124;4.182;2022-08-18T13:31:32;24.70;99.90
41904;DHT22;27586;51.124;4.182;2022-08-18T13:33:58;24.70;99.90
41904;DHT22;27586;51.124;4.182;2022-08-18T13:36:25;24.50;99.90
41904;DHT22;27586;51.124;4.182;2022-08-18T13:38:52;24.50;99.90
41904;DHT22;27586;51.124;4.182;2022-08-18T13:41:19;24.60;99.90
41904;DHT22;27586;51.124;4.182;2022-08-18T13:43:46;24.60;99.90
41904;DHT22;27586;51.124;4.182;2022-08-18T13:46:15;24.50;99.90
41904;DHT22;27586;51.124;4.182;2022-08-18T13:48:41;24.60;99.90
41904;DHT22;27586;51.124;4.182;2022-08-18T13:51:08;24.60;99.90
41904;DHT22;27586;51.124;4.182;2022-08-18T13:53:37;24.50;99.90
41904;DHT22;27586;51.124;4.182;2022-08-18T13:56:03;24.60;99.90
41904;DHT22;27586;51.124;4.182;2022-08-18T13:58:30;24.50;99.90
41904;DHT22;27586;51.124;4.182;2022-08-18T14:00:59;24.60;99.90
41904;DHT22;27586;51.124;4.182;2022-08-18T14:03:26;24.60;99.90
41904;DHT22;27586;51.124;4.182;2022-08-18T14:05:52;24.60;99.90
41904;DHT22;27586;51.124;4.182;2022-08-18T14:08:23;24.70;99.90
41904;DHT22;27586;51.124;4.182;2022-08-18T14:10:53;24.70;99.90
41904;DHT22;27586;51.124;4.182;2022-08-18T14:13:19;24.70;99.90
41904;DHT22;27586;51.124;4.182;2022-08-18T14:15:49;24.70;99.90
41904;DHT22;27586;51.124;4.182;2022-08-18T14:18:15;24.60;99.90
41904;DHT22;27586;51.124;4.182;2022-08-18T14:20:40;24.70;99.90
41904;DHT22;27586;51.124;4.182;2022-08-18T14:23:25;24.80;99.90
41904;DHT22;27586;51.124;4.182;2022-08-18T14:26:09;24.80;99.90
41904;DHT22;27586;51.124;4.182;2022-08-18T14:28:54;24.80;99.90
41904;DHT22;27586;51.124;4.182;2022-08-18T14:31:20;24.70;99.90
41904;DHT22;27586;51.124;4.182;2022-08-18T14:33:45;24.70;99.90
41904;DHT22;27586;51.124;4.182;2022-08-18T14:36:12;24.70;99.90
41904;DHT22;27586;51.124;4.182;2022-08-18T14:38:39;24.70;99.90
41904;DHT22;27586;51.124;4.182;2022-08-18T14:41:08;24.70;99.90
41904;DHT22;27586;51.124;4.182;2022-08-18T14:43:35;24.90;99.90
41904;DHT22;27586;51.124;4.182;2022-08-18T14:46:04;25.00;99.90
41904;DHT22;27586;51.124;4.182;2022-08-18T14:48:30;25.10;99.90
41904;DHT22;27586;51.124;4.182;2022-08-18T14:50:58;25.10;99.90
41904;DHT22;27586;51.124;4.182;2022-08-18T14:53:29;25.10;99.90
41904;DHT22;27586;51.124;4.182;2022-08-18T14:55:56;25.30;99.90
41904;DHT22;27586;51.124;4.182;2022-08-18T14:58:24;25.30;99.90
41904;DHT22;27586;51.124;4.182;2022-08-18T15:00:53;25.50;99.90
41904;DHT22;27586;51.124;4.182;2022-08-18T15:03:19;25.60;99.90
41904;DHT22;27586;51.124;4.182;2022-08-18T15:05:45;25.70;99.90
41904;DHT22;27586;51.124;4.182;2022-08-18T15:08:11;25.70;99.90
41904;DHT22;27586;51.124;4.182;2022-08-18T15:10:37;25.60;99.90
41904;DHT22;27586;51.124;4.182;2022-08-18T15:13:03;25.50;99.90
41904;DHT22;27586;51.124;4.182;2022-08-18T15:15:29;25.50;99.90
41904;DHT22;27586;51.124;4.182;2022-08-18T15:17:57;25.60;99.90
41904;DHT22;27586;51.124;4.182;2022-08-18T15:20:24;25.70;99.90
41904;DHT22;27586;51.124;4.182;2022-08-18T15:22:50;25.90;99.90
41904;DHT22;27586;51.124;4.182;2022-08-18T15:25:34;25.90;99.90
41904;DHT22;27586;51.124;4.182;2022-08-18T15:28:19;25.90;99.90
41904;DHT22;27586;51.124;4.182;2022-08-18T15:30:47;25.90;99.90
41904;DHT22;27586;51.124;4.182;2022-08-18T15:33:13;25.90;99.90
41904;DHT22;27586;51.124;4.182;2022-08-18T15:35:41;25.80;99.90
41904;DHT22;27586;51.124;4.182;2022-08-18T15:38:08;25.80;99.90
41904;DHT22;27586;51.124;4.182;2022-08-18T15:40:38;25.90;99.90
41904;DHT22;27586;51.124;4.182;2022-08-18T15:43:11;25.90;99.70
41904;DHT22;27586;51.124;4.182;2022-08-18T15:45:41;25.80;99.20
41904;DHT22;27586;51.124;4.182;2022-08-18T15:48:09;25.70;99.60
41904;DHT22;27586;51.124;4.182;2022-08-18T15:50:35;25.50;99.90
41904;DHT22;27586;51.124;4.182;2022-08-18T15:53:02;25.60;99.90
41904;DHT22;27586;51.124;4.182;2022-08-18T15:55:33;25.60;99.90
41904;DHT22;27586;51.124;4.182;2022-08-18T15:57:59;25.60;99.90
41904;DHT22;27586;51.124;4.182;2022-08-18T16:00:27;25.60;99.90
41904;DHT22;27586;51.124;4.182;2022-08-18T16:03:00;25.60;99.90
41904;DHT22;27586;51.124;4.182;2022-08-18T16:05:35;25.70;99.90
41904;DHT22;27586;51.124;4.182;2022-08-18T16:08:03;25.50;99.90
41904;DHT22;27586;51.124;4.182;2022-08-18T16:10:32;25.50;99.90
41904;DHT22;27586;51.124;4.182;2022-08-18T16:12:58;25.30;99.90
41904;DHT22;27586;51.124;4.182;2022-08-18T16:15:26;25.30;99.90
41904;DHT22;27586;51.124;4.182;2022-08-18T16:17:53;25.30;99.90
41904;DHT22;27586;51.124;4.182;2022-08-18T16:20:20;25.30;99.90
41904;DHT22;27586;51.124;4.182;2022-08-18T16:22:49;25.50;99.90
41904;DHT22;27586;51.124;4.182;2022-08-18T16:25:15;25.40;99.90
41904;DHT22;27586;51.124;4.182;2022-08-18T16:27:41;25.50;99.90
41904;DHT22;27586;51.124;4.182;2022-08-18T16:30:13;25.50;99.90
41904;DHT22;27586;51.124;4.182;2022-08-18T16:32:39;25.40;99.90
41904;DHT22;27586;51.124;4.182;2022-08-18T16:35:05;25.40;99.90
41904;DHT22;27586;51.124;4.182;2022-08-18T16:37:31;25.60;99.90
41904;DHT22;27586;51.124;4.182;2022-08-18T16:39:57;25.60;99.90
41904;DHT22;27586;51.124;4.182;2022-08-18T16:42:23;25.50;99.90
41904;DHT22;27586;51.124;4.182;2022-08-18T16:44:48;25.40;99.90
41904;DHT22;27586;51.124;4.182;2022-08-18T16:47:15;25.20;99.90
41904;DHT22;27586;51.124;4.182;2022-08-18T16:49:46;25.20;99.90
41904;DHT22;27586;51.124;4.182;2022-08-18T16:52:14;25.00;99.90
41904;DHT22;27586;51.124;4.182;2022-08-18T16:54:41;25.10;99.90
41904;DHT22;27586;51.124;4.182;2022-08-18T16:57:07;25.10;99.90
41904;DHT22;27586;51.124;4.182;2022-08-18T16:59:32;25.10;99.90
41904;DHT22;27586;51.124;4.182;2022-08-18T17:02:17;25.00;99.90
41904;DHT22;27586;51.124;4.182;2022-08-18T17:05:01;24.90;99.90
41904;DHT22;27586;51.124;4.182;2022-08-18T17:07:33;24.80;99.90
41904;DHT22;27586;51.124;4.182;2022-08-18T17:10:00;24.60;99.90
41904;DHT22;27586;51.124;4.182;2022-08-18T17:12:26;24.60;99.90
41904;DHT22;27586;51.124;4.182;2022-08-18T17:14:53;24.70;99.90
41904;DHT22;27586;51.124;4.182;2022-08-18T17:17:20;24.70;99.90
41904;DHT22;27586;51.124;4.182;2022-08-18T17:19:47;24.70;99.90
41904;DHT22;27586;51.124;4.182;2022-08-18T17:22:14;24.70;99.90
41904;DHT22;27586;51.124;4.182;2022-08-18T17:24:41;24.60;99.90
41904;DHT22;27586;51.124;4.182;2022-08-18T17:32:40;24.50;99.90
41904;DHT22;27586;51.124;4.182;2022-08-18T17:35:07;24.40;99.90
41904;DHT22;27586;51.124;4.182;2022-08-18T17:37:44;24.40;99.90
41904;DHT22;27586;51.124;4.182;2022-08-18T17:40:34;24.30;99.90
41904;DHT22;27586;51.124;4.182;2022-08-18T17:43:03;24.40;99.90
41904;DHT22;27586;51.124;4.182;2022-08-18T17:45:31;24.30;99.90
41904;DHT22;27586;51.124;4.182;2022-08-18T17:48:01;24.30;99.90
41904;DHT22;27586;51.124;4.182;2022-08-18T17:50:33;24.30;99.90
41904;DHT22;27586;51.124;4.182;2022-08-18T17:53:19;24.30;99.90
41904;DHT22;27586;51.124;4.182;2022-08-18T17:56:08;24.20;99.90
41904;DHT22;27586;51.124;4.182;2022-08-18T17:58:53;24.30;99.90
41904;DHT22;27586;51.124;4.182;2022-08-18T18:01:22;24.10;99.90
41904;DHT22;27586;51.124;4.182;2022-08-18T18:03:48;24.10;99.90
41904;DHT22;27586;51.124;4.182;2022-08-18T18:06:30;23.90;99.90
41904;DHT22;27586;51.124;4.182;2022-08-18T18:09:28;24.20;99.90
41904;DHT22;27586;51.124;4.182;2022-08-18T18:11:54;24.20;99.90
41904;DHT22;27586;51.124;4.182;2022-08-18T18:17:06;24.00;99.90
41904;DHT22;27586;51.124;4.182;2022-08-18T18:19:34;23.80;99.90
41904;DHT22;27586;51.124;4.182;2022-08-18T18:22:04;23.80;99.90
41904;DHT22;27586;51.124;4.182;2022-08-18T18:24:34;23.70;99.90
41904;DHT22;27586;51.124;4.182;2022-08-18T18:27:00;23.60;99.90
41904;DHT22;27586;51.124;4.182;2022-08-18T18:29:30;23.70;99.90
41904;DHT22;27586;51.124;4.182;2022-08-18T18:32:29;23.60;99.90
41904;DHT22;27586;51.124;4.182;2022-08-18T18:37:30;23.50;99.90
41904;DHT22;27586;51.124;4.182;2022-08-18T18:40:03;23.40;99.90
41904;DHT22;27586;51.124;4.182;2022-08-18T18:42:32;23.30;99.90
41904;DHT22;27586;51.124;4.182;2022-08-18T18:45:01;23.20;99.90
41904;DHT22;27586;51.124;4.182;2022-08-18T18:47:43;23.10;99.90